Gallatin Field
KBZN : now visible

Airfield :











YOU CAN JOIN US ON...

 
LOGIN :

Register | Disclaimer

   EN    FR    IT 

 









Legend :    VFR   Marginal VFR   IFR   Intensive IFR   Very Intensive IFR
Visi :
Ceiling :
>= 8 km
>= 3000ft
5 to 8 km
1000 to 3000 ft
1500m to 5 km
500 to 1000 ft
800 to 1500m
200 to 500 ft
< 800m
< 200 ft
Symbols :   Thunderstorms  Fog  Heavy snow  Heavy precipitations  Wind > 20 kt






- Airport Elevation : 4473 ft
- IATA code : BZN


KBZN - Gallatin Field

CURRENT METAR :
  • 080656Z 04004KT 10SM BKN080 BKN095 OVC110 03/M02 A2975 RMK AO2 SLP095 T00281017 400781100

EXPIRED METARs :
  • 080556Z 00000KT 10SM OVC085 03/M02 A2976 RMK AO2 SLP100 T00331017 10078 20022 58009
  • 080456Z 00000KT 10SM OVC080 03/M02 A2977 RMK AO2 SLP106 T00281017

TAF KBZN
Valid from the 08 at 06:00 until the 09 at 12:00 UTC


080525Z 0806/0912 VRB04KT P6SM OVC080 WS020/24030KT
FM081000 VRB03KT P6SM VCSH SCT050 OVC070
TEMPO 0815/0819 1SM -SN BR OVC020
FM081900 32007KT 6SM -SN BR SCT025 OVC045
PROB30 0821/0823 1SM -SN BR OVC025
FM090000 VRB05KT P6SM VCSH SCT045 BKN060



MET'MAP, your aeronautical weather chart ! - Copyright ORBIFLY December 2007 - Disclaimer

ORBIFLY MET'MAP TEAM :

Programming & Development : Alexandra Zaïnal
Concept & original design : Baudouin d'Aumeries
Assistance for programming : Marc-Olivier Méhu
Technical & hardware support : Manuel Goepfert

Contact : metmap@orbifly.com




SOURCES & CREDITS :

   NOAA       Earth
Advisory